Time;durP1;ratioP1;P1;durP2;ratioP2;P2;SDS_P1;SDS_P2;PMS_P1;PMS_P2;Temp;Humidity;BMP_temperature;BMP_pressure;BME280_temperature;BME280_humidity;BME280_pressure;Samples;Min_cycle;Max_cycle;Signal;HPM_P1;HPM_P2
2021/01/05 00:01:47;;;;;;;8.73;2.88;;;25.90;84.30;;;;;;4957545;29;20035;-95
2021/01/05 00:04:40;;;;;;;5.88;2.45;;;25.90;85.20;;;;;;4956252;29;20085;-96
2021/01/05 00:07:24;;;;;;;10.27;3.65;;;25.80;84.60;;;;;;4919202;29;20081;-95
2021/01/05 00:12:53;;;;;;;7.45;3.22;;;25.80;85.80;;;;;;4943084;29;20082;-96
2021/01/05 00:15:20;;;;;;;7.10;3.28;;;25.70;85.10;;;;;;4955295;29;20079;-96
2021/01/05 00:30:03;;;;;;;4.72;2.33;;;25.60;85.10;;;;;;5041068;23;20103;-94
2021/01/05 00:33:05;;;;;;;;;;;;;;;;;;;;;
2021/01/05 00:35:48;;;;;;;4.43;1.92;;;25.50;85.60;;;;;;4964673;29;20035;-94
2021/01/05 00:38:14;;;;;;;4.55;2.63;;;25.40;85.60;;;;;;4951887;29;20039;-96
2021/01/05 00:41:09;;;;;;;4.03;2.42;;;25.40;85.40;;;;;;4954256;29;20027;-95
2021/01/05 00:44:38;;;;;;;4.95;1.90;;;25.40;85.50;;;;;;4929627;29;20046;-93
2021/01/05 00:47:20;;;;;;;5.35;1.92;;;25.40;85.50;;;;;;4875831;29;20040;-94
2021/01/05 00:50:07;;;;;;;4.22;1.98;;;25.30;85.00;;;;;;4892554;29;20028;-95
2021/01/05 00:52:55;;;;;;;3.55;1.55;;;25.30;85.00;;;;;;4892615;29;20446;-95
2021/01/05 01:47:26;;;;;;;3.80;1.50;;;24.60;84.70;;;;;;4953347;29;20046;-95
2021/01/05 01:50:21;;;;;;;;;;;;;;;;;;;;;
2021/01/05 01:53:33;;;;;;;2.38;1.30;;;24.60;84.60;;;;;;4937001;29;20071;-93
2021/01/05 01:57:06;;;;;;;;;;;;;;;;;;;;;
2021/01/05 02:07:21;;;;;;;6.00;1.83;;;24.40;85.10;;;;;;4972623;29;20034;-94
2021/01/05 02:10:59;;;;;;;5.78;1.35;;;24.30;85.40;;;;;;4971217;29;20030;-93
2021/01/05 02:13:59;;;;;;;2.83;1.65;;;24.30;85.10;;;;;;4915268;29;20100;-95
2021/01/05 02:16:50;;;;;;;2.38;1.13;;;24.30;85.60;;;;;;4895877;29;20035;-92
2021/01/05 02:19:58;;;;;;;3.33;1.50;;;24.30;85.30;;;;;;4971568;29;20031;-92
2021/01/05 02:23:11;;;;;;;1.58;1.10;;;24.30;85.20;;;;;;4934587;29;20031;-92
2021/01/05 02:35:15;;;;;;;1.80;1.10;;;24.20;86.10;;;;;;4974628;29;20239;-93
2021/01/05 02:38:19;;;;;;;2.53;1.20;;;24.20;85.80;;;;;;4953070;29;20067;-92
2021/01/05 02:41:24;;;;;;;5.18;1.17;;;24.20;86.30;;;;;;4953940;29;20031;-90
2021/01/05 02:44:51;;;;;;;3.95;1.27;;;24.20;85.70;;;;;;4940279;29;20142;-93
2021/01/05 02:54:43;;;;;;;2.45;1.50;;;24.20;85.80;;;;;;4971265;29;20018;-94
2021/01/05 03:01:16;;;;;;;6.63;2.05;;;24.10;86.40;;;;;;4962638;28;20026;-93
2021/01/05 03:04:26;;;;;;;6.57;2.67;;;24.10;86.00;;;;;;4912835;29;20333;-93
2021/01/05 03:07:24;;;;;;;4.40;1.88;;;24.10;86.20;;;;;;4914325;29;20092;-92
2021/01/05 03:10:33;;;;;;;5.28;2.10;;;24.10;87.20;;;;;;4888260;29;20111;-91
2021/01/05 03:14:02;;;;;;;5.10;1.98;;;24.00;87.20;;;;;;4907722;29;20044;-96
2021/01/05 03:26:10;;;;;;;3.08;1.40;;;23.90;87.40;;;;;;4974635;28;20058;-92
2021/01/05 03:28:39;;;;;;;2.08;1.20;;;23.90;87.50;;;;;;4973777;29;20043;-94
2021/01/05 03:31:26;;;;;;;3.33;1.40;;;24.00;86.60;;;;;;4971354;29;20043;-92
2021/01/05 03:34:04;;;;;;;2.75;1.00;;;23.90;86.60;;;;;;4965932;29;20036;-93
2021/01/05 03:36:55;;;;;;;11.23;1.52;;;24.00;86.60;;;;;;4956762;29;20055;-91
2021/01/05 03:39:41;;;;;;;5.80;1.33;;;24.00;86.70;;;;;;4961894;29;20416;-93
2021/01/05 03:43:10;;;;;;;4.43;1.20;;;24.00;86.70;;;;;;4956155;29;20027;-95
2021/01/05 03:52:10;;;;;;;3.17;1.50;;;23.90;86.70;;;;;;4972392;29;20226;-93
2021/01/05 03:54:55;;;;;;;;;;;23.90;86.60;;;;;;4956928;29;20043;-92
2021/01/05 03:57:40;;;;;;;;;;;;;;;;;;;;;
2021/01/05 04:07:47;;;;;;;2.92;1.10;;;24.00;87.00;;;;;;4936256;29;20320;-92
2021/01/05 04:17:09;;;;;;;2.38;1.45;;;24.00;86.90;;;;;;4935198;29;20055;-91
2021/01/05 04:20:06;;;;;;;2.33;1.58;;;24.00;87.30;;;;;;4917534;29;20032;-91
2021/01/05 04:23:31;;;;;;;4.22;1.20;;;24.00;86.90;;;;;;4918269;29;20024;-92
2021/01/05 04:25:57;;;;;;;3.63;1.30;;;23.90;87.10;;;;;;4877535;29;20037;-94
2021/01/05 04:28:32;;;;;;;2.78;1.10;;;24.00;87.00;;;;;;4875699;29;20040;-93
2021/01/05 04:30:59;;;;;;;4.60;1.38;;;24.00;87.10;;;;;;4874241;29;20029;-93
2021/01/05 04:33:52;;;;;;;2.53;1.10;;;24.10;86.60;;;;;;4873389;29;20392;-94
2021/01/05 04:36:21;;;;;;;;;;;24.10;86.70;;;;;;4876132;29;20209;-95
2021/01/05 04:38:48;;;;;;;2.60;0.90;;;24.10;86.30;;;;;;4876542;29;19982;-93
2021/01/05 04:41:27;;;;;;;3.67;0.93;;;24.10;86.30;;;;;;4875356;29;20035;-94
2021/01/05 04:44:03;;;;;;;2.72;1.15;;;24.10;85.90;;;;;;4875731;29;20092;-94
2021/01/05 04:50:14;;;;;;;5.75;1.58;;;24.10;86.60;;;;;;4895267;29;20033;-92
2021/01/05 04:54:23;;;;;;;;;;;;;;;;;;;;;
2021/01/05 04:56:48;;;;;;;6.97;3.60;;;24.10;85.70;;;;;;4890975;29;20113;-93
2021/01/05 04:59:19;;;;;;;14.48;8.45;;;24.10;86.00;;;;;;4907082;29;20036;-94
2021/01/05 05:02:42;;;;;;;;;;;;;;;;;;;;;
2021/01/05 05:05:31;;;;;;;7.40;4.15;;;24.10;85.30;;;;;;4911341;29;20115;-93
2021/01/05 05:08:34;;;;;;;6.38;4.40;;;24.10;85.40;;;;;;4931238;29;20035;-94
2021/01/05 05:11:13;;;;;;;6.35;3.25;;;24.20;84.70;;;;;;4949662;29;20047;-95
2021/01/05 05:13:52;;;;;;;4.85;2.20;;;24.20;84.70;;;;;;4930456;29;20036;-94
2021/01/05 05:20:23;;;;;;;4.13;1.77;;;24.20;83.70;;;;;;4948578;29;20027;-93
2021/01/05 05:23:00;;;;;;;3.33;1.10;;;24.20;83.70;;;;;;4898985;29;20032;-91
2021/01/05 05:25:48;;;;;;;2.22;0.90;;;24.20;83.50;;;;;;4949567;29;20023;-91
2021/01/05 05:29:18;;;;;;;1.92;0.73;;;24.20;83.00;;;;;;4952319;29;20054;-95
2021/01/05 05:32:02;;;;;;;2.05;0.85;;;24.20;81.80;;;;;;4897976;29;20057;-92
2021/01/05 05:35:06;;;;;;;1.95;0.70;;;24.30;81.70;;;;;;4899641;29;20040;-91
2021/01/05 05:41:55;;;;;;;1.98;0.50;;;24.20;81.40;;;;;;4855171;29;20086;-91
2021/01/05 05:45:23;;;;;;;4.35;0.57;;;24.20;80.60;;;;;;4881865;29;20365;-92
2021/01/05 05:48:06;;;;;;;1.98;0.65;;;24.20;80.20;;;;;;4839922;29;20046;-92
2021/01/05 05:51:01;;;;;;;4.07;0.77;;;24.20;80.10;;;;;;4839364;29;20035;-93
2021/01/05 05:53:37;;;;;;;1.58;0.70;;;24.20;80.70;;;;;;4821794;29;20042;-95
2021/01/05 05:56:26;;;;;;;;;;;;;;;;;;;;;
2021/01/05 05:59:01;;;;;;;1.60;0.60;;;24.10;79.90;;;;;;4896429;29;20049;-91
2021/01/05 06:02:20;;;;;;;;;;;;;;;;;;;;;
2021/01/05 06:04:47;;;;;;;1.08;0.70;;;24.10;79.10;;;;;;4896387;29;20073;-95
2021/01/05 06:07:14;;;;;;;1.42;0.60;;;24.10;78.90;;;;;;4876783;29;20341;-93
2021/01/05 06:09:41;;;;;;;2.55;0.88;;;24.00;77.90;;;;;;4875879;29;20041;-93
2021/01/05 06:12:08;;;;;;;3.00;0.57;;;24.10;77.70;;;;;;4910046;29;20083;-94
2021/01/05 06:14:34;;;;;;;0.90;0.50;;;24.00;77.00;;;;;;4935376;29;20039;-92
2021/01/05 06:17:01;;;;;;;0.90;0.47;;;24.00;76.60;;;;;;4933370;29;20106;-93
2021/01/05 06:19:30;;;;;;;0.63;0.47;;;24.00;77.50;;;;;;4935685;29;20032;-92
2021/01/05 06:21:57;;;;;;;0.82;0.60;;;24.00;76.50;;;;;;4935343;29;20028;-93
2021/01/05 06:24:35;;;;;;;0.68;0.40;;;23.90;76.00;;;;;;4934903;29;20316;-95
2021/01/05 06:27:02;;;;;;;1.50;0.40;;;24.00;76.10;;;;;;4933742;29;20055;-91
2021/01/05 06:29:29;;;;;;;0.50;0.40;;;23.90;76.00;;;;;;4952404;29;20032;-92
2021/01/05 06:31:55;;;;;;;1.75;0.50;;;23.90;75.30;;;;;;4933902;29;20065;-95
2021/01/05 06:34:22;;;;;;;2.00;0.50;;;23.90;76.20;;;;;;4934764;29;20040;-92
2021/01/05 06:36:49;;;;;;;3.60;0.82;;;23.90;75.80;;;;;;4932967;29;20035;-93
2021/01/05 06:39:18;;;;;;;1.33;0.63;;;23.90;75.00;;;;;;4931460;29;20054;-94
2021/01/05 06:41:58;;;;;;;2.38;0.55;;;23.90;75.60;;;;;;4987007;23;20047;-88
2021/01/05 06:44:25;;;;;;;1.38;0.40;;;23.80;76.00;;;;;;4900596;29;20049;-90
2021/01/05 06:46:56;;;;;;;1.42;0.50;;;23.80;76.40;;;;;;4901931;29;20029;-89
2021/01/05 06:49:26;;;;;;;1.38;0.57;;;23.70;76.20;;;;;;4897774;29;20041;-89
2021/01/05 06:51:55;;;;;;;2.05;0.80;;;23.70;75.90;;;;;;4904392;29;20037;-86
2021/01/05 06:54:21;;;;;;;0.45;0.40;;;23.70;74.40;;;;;;4905289;29;20040;-90
2021/01/05 06:56:52;;;;;;;1.75;0.63;;;23.60;75.30;;;;;;4905199;29;20041;-88
2021/01/05 06:59:21;;;;;;;2.58;0.70;;;23.60;76.00;;;;;;4905152;29;20060;-94
2021/01/05 07:02:04;;;;;;;3.40;0.82;;;23.50;77.00;;;;;;4893781;29;20045;-94
2021/01/05 07:04:32;;;;;;;2.80;0.90;;;23.50;76.70;;;;;;4891563;29;20029;-94
2021/01/05 07:07:00;;;;;;;2.25;0.80;;;23.40;77.40;;;;;;4891198;29;20494;-92
2021/01/05 07:09:34;;;;;;;2.15;0.93;;;23.40;77.50;;;;;;4891132;29;20128;-92
2021/01/05 07:12:02;;;;;;;2.17;0.82;;;23.40;77.80;;;;;;4890340;29;20037;-91
2021/01/05 07:14:36;;;;;;;2.42;0.98;;;23.40;77.80;;;;;;4860734;29;20037;-92
2021/01/05 07:17:11;;;;;;;2.35;0.95;;;23.30;77.70;;;;;;4875053;29;20101;-92
2021/01/05 07:19:42;;;;;;;3.97;0.80;;;23.30;77.50;;;;;;4876385;29;20068;-90
2021/01/05 07:22:08;;;;;;;3.40;1.00;;;23.30;77.40;;;;;;4901152;29;20024;-91
2021/01/05 07:24:35;;;;;;;1.83;0.60;;;23.30;77.60;;;;;;4931956;29;20035;-93
2021/01/05 07:27:04;;;;;;;2.72;0.95;;;23.30;77.70;;;;;;4932034;29;20031;-95
2021/01/05 07:29:31;;;;;;;1.25;0.52;;;23.20;78.00;;;;;;4931740;29;20031;-92
2021/01/05 07:32:04;;;;;;;1.75;0.75;;;23.20;77.60;;;;;;4931796;29;20345;-90
2021/01/05 07:35:06;;;;;;;1.00;0.50;;;23.20;77.80;;;;;;4933365;29;20035;-92
2021/01/05 07:37:37;;;;;;;4.53;0.85;;;23.20;77.90;;;;;;4930993;29;20324;-95
2021/01/05 07:40:09;;;;;;;1.50;0.45;;;23.10;76.70;;;;;;4932146;29;20030;-95
2021/01/05 07:42:36;;;;;;;1.90;0.75;;;23.10;77.10;;;;;;4931374;29;20052;-92
2021/01/05 07:45:08;;;;;;;2.17;0.82;;;23.10;76.80;;;;;;4931740;29;20027;-92
2021/01/05 07:47:38;;;;;;;1.83;0.80;;;23.00;76.30;;;;;;4947889;29;20031;-93
2021/01/05 07:50:15;;;;;;;4.07;0.85;;;23.00;76.00;;;;;;4931258;29;20059;-92
2021/01/05 07:52:47;;;;;;;4.07;0.88;;;23.00;76.40;;;;;;4935127;29;20033;-91
2021/01/05 07:55:24;;;;;;;4.43;0.73;;;23.00;76.40;;;;;;4931756;29;20103;-95
2021/01/05 07:57:52;;;;;;;2.72;0.77;;;22.90;76.80;;;;;;4931270;29;20032;-92
2021/01/05 08:00:22;;;;;;;3.55;0.93;;;22.90;76.00;;;;;;4931164;29;20252;-92
2021/01/05 08:02:49;;;;;;;3.35;1.08;;;22.90;76.40;;;;;;4915669;29;20043;-92
2021/01/05 08:05:26;;;;;;;2.97;0.63;;;22.90;76.30;;;;;;4930917;29;20115;-92
2021/01/05 08:07:55;;;;;;;3.28;1.10;;;22.90;75.90;;;;;;4931995;29;20324;-92
2021/01/05 08:10:29;;;;;;;3.25;1.23;;;22.90;76.10;;;;;;4930651;29;20062;-93
2021/01/05 08:13:00;;;;;;;3.08;1.20;;;23.00;76.10;;;;;;4947552;29;20031;-93
2021/01/05 08:15:31;;;;;;;3.25;0.90;;;23.00;76.00;;;;;;4932601;29;20355;-92
2021/01/05 08:17:59;;;;;;;5.93;0.90;;;23.00;76.10;;;;;;4930883;29;20044;-92
2021/01/05 08:20:28;;;;;;;6.35;0.95;;;23.00;75.60;;;;;;4911604;29;20036;-91
2021/01/05 08:22:56;;;;;;;3.80;0.73;;;23.00;75.20;;;;;;4929320;29;20024;-90
2021/01/05 08:25:25;;;;;;;2.45;0.50;;;23.00;74.30;;;;;;4933069;29;20032;-92
2021/01/05 08:27:52;;;;;;;3.10;0.60;;;23.00;73.70;;;;;;4933449;29;20343;-94
2021/01/05 08:30:28;;;;;;;3.10;0.70;;;23.00;73.50;;;;;;4925976;29;20050;-92
2021/01/05 08:33:04;;;;;;;1.15;0.52;;;23.10;73.60;;;;;;4930266;29;20355;-92
2021/01/05 08:35:31;;;;;;;3.95;0.60;;;23.00;73.30;;;;;;4930165;29;20043;-91
2021/01/05 08:38:00;;;;;;;2.97;0.40;;;23.00;73.60;;;;;;4930126;29;20038;-92
2021/01/05 08:40:37;;;;;;;0.85;0.40;;;23.00;73.80;;;;;;4930499;29;20058;-92
2021/01/05 08:43:09;;;;;;;1.63;0.60;;;23.10;73.80;;;;;;4939568;29;20047;-91
2021/01/05 08:45:39;;;;;;;1.30;0.52;;;23.10;73.00;;;;;;4934858;29;20041;-92
2021/01/05 08:48:06;;;;;;;1.48;0.45;;;23.00;72.50;;;;;;4948451;29;20082;-92
2021/01/05 08:50:33;;;;;;;3.03;0.80;;;23.00;72.40;;;;;;4965755;29;20083;-93
2021/01/05 08:53:03;;;;;;;1.42;0.57;;;23.00;72.40;;;;;;4949091;29;20035;-93
2021/01/05 08:55:30;;;;;;;1.55;0.50;;;23.00;73.10;;;;;;4948669;29;20087;-92
2021/01/05 08:57:56;;;;;;;1.42;0.60;;;23.00;72.80;;;;;;4949288;29;20035;-94
2021/01/05 09:00:23;;;;;;;1.38;0.50;;;23.00;72.90;;;;;;4949971;29;20038;-90
2021/01/05 09:02:50;;;;;;;1.85;0.80;;;23.00;71.70;;;;;;4963154;29;20039;-93
2021/01/05 09:05:17;;;;;;;2.05;0.55;;;23.00;72.80;;;;;;4948137;28;20031;-93
2021/01/05 09:07:44;;;;;;;0.70;0.50;;;22.90;72.90;;;;;;4948444;29;20042;-92
2021/01/05 09:10:17;;;;;;;2.85;0.60;;;22.90;73.00;;;;;;4965136;29;20047;-93
2021/01/05 09:12:45;;;;;;;3.72;0.65;;;22.80;73.10;;;;;;4949732;29;20031;-91
2021/01/05 09:18:34;;;;;;;1.02;0.50;;;22.70;73.60;;;;;;4966941;29;20046;-92
2021/01/05 09:21:04;;;;;;;3.50;0.70;;;22.70;73.80;;;;;;4949761;29;20031;-92
2021/01/05 09:23:33;;;;;;;1.33;0.65;;;22.60;73.60;;;;;;4948788;29;20032;-93
2021/01/05 09:26:00;;;;;;;0.65;0.40;;;22.60;74.40;;;;;;4948998;29;20027;-92
2021/01/05 09:28:35;;;;;;;1.38;0.63;;;22.60;74.00;;;;;;4967052;29;20107;-92
2021/01/05 09:31:01;;;;;;;;;;;22.60;73.80;;;;;;4950465;29;20243;-93
2021/01/05 09:33:32;;;;;;;0.65;0.50;;;22.60;72.10;;;;;;4966098;29;19913;-93
2021/01/05 09:35:59;;;;;;;3.50;0.68;;;22.60;71.80;;;;;;4948335;29;20031;-93
2021/01/05 09:38:27;;;;;;;1.25;0.50;;;22.70;71.80;;;;;;4949050;29;20054;-91
2021/01/05 09:40:57;;;;;;;2.67;0.70;;;22.70;72.20;;;;;;4950691;29;20054;-91
2021/01/05 09:43:29;;;;;;;2.70;0.70;;;22.60;72.00;;;;;;4948294;29;20075;-92
2021/01/05 09:46:02;;;;;;;1.95;0.50;;;22.70;71.60;;;;;;4950694;29;20040;-91
2021/01/05 09:48:44;;;;;;;2.15;0.40;;;22.60;72.00;;;;;;4952349;29;20034;-90
2021/01/05 09:51:34;;;;;;;1.50;0.50;;;22.60;73.00;;;;;;4950654;29;20027;-93
2021/01/05 09:54:02;;;;;;;1.85;0.60;;;22.60;72.10;;;;;;4965608;29;20099;-94
2021/01/05 09:56:44;;;;;;;1.42;0.60;;;22.60;72.70;;;;;;4967931;29;20119;-90
2021/01/05 09:59:13;;;;;;;2.38;0.60;;;22.60;72.80;;;;;;4967981;29;20031;-91
2021/01/05 10:01:40;;;;;;;2.20;0.93;;;22.60;72.70;;;;;;4947951;29;20027;-93
2021/01/05 10:04:06;;;;;;;3.53;0.85;;;22.60;72.10;;;;;;4947527;29;20079;-92
2021/01/05 10:06:34;;;;;;;2.10;0.93;;;22.60;71.70;;;;;;4965697;29;20035;-92
2021/01/05 10:09:08;;;;;;;2.60;0.73;;;22.50;72.10;;;;;;4948080;29;20031;-92
2021/01/05 10:11:37;;;;;;;1.25;0.75;;;22.60;71.20;;;;;;4949843;29;20031;-94
2021/01/05 10:14:04;;;;;;;4.38;1.02;;;22.50;71.30;;;;;;4950328;29;20062;-94
2021/01/05 10:16:45;;;;;;;5.32;1.48;;;22.50;71.10;;;;;;4952053;29;20130;-95
2021/01/05 10:19:16;;;;;;;1.60;0.77;;;22.50;71.90;;;;;;4952420;29;20031;-93
2021/01/05 10:21:43;;;;;;;3.05;0.90;;;22.50;72.40;;;;;;4951125;29;20034;-92
2021/01/05 10:24:12;;;;;;;1.95;0.80;;;22.50;72.10;;;;;;4951798;29;20139;-91
2021/01/05 10:26:40;;;;;;;1.13;0.50;;;22.50;71.50;;;;;;4951533;29;20042;-93
2021/01/05 10:29:07;;;;;;;1.27;0.85;;;22.40;72.10;;;;;;4951774;29;20043;-92
2021/01/05 10:35:00;;;;;;;2.67;0.80;;;22.30;72.40;;;;;;4969312;28;20380;-92
2021/01/05 10:37:30;;;;;;;3.42;0.95;;;22.30;70.90;;;;;;4951466;29;20042;-92
2021/01/05 10:39:59;;;;;;;1.75;0.90;;;22.30;71.40;;;;;;4952022;28;20027;-92
2021/01/05 10:42:48;;;;;;;0.93;0.77;;;22.30;71.70;;;;;;4951707;29;20042;-94
2021/01/05 10:45:23;;;;;;;2.70;1.02;;;22.30;71.30;;;;;;4910998;29;20032;-93
2021/01/05 10:48:26;;;;;;;1.85;1.55;;;22.20;71.90;;;;;;4911546;29;20069;-96
2021/01/05 10:50:57;;;;;;;2.70;1.63;;;22.20;71.80;;;;;;4912064;29;20052;-89
2021/01/05 10:53:35;;;;;;;6.95;1.63;;;22.10;71.90;;;;;;4884713;29;20043;-92
2021/01/05 10:56:03;;;;;;;2.30;0.90;;;22.00;73.00;;;;;;4914064;29;20048;-92
2021/01/05 10:58:35;;;;;;;2.88;1.15;;;22.00;72.50;;;;;;4898786;29;20029;-90
2021/01/05 11:01:14;;;;;;;2.85;1.00;;;22.00;72.50;;;;;;4913474;29;20035;-90
2021/01/05 11:03:43;;;;;;;2.53;1.30;;;22.10;73.10;;;;;;4882828;29;20032;-90
2021/01/05 11:06:10;;;;;;;2.28;1.10;;;22.00;72.60;;;;;;4893391;29;20025;-90
2021/01/05 11:08:37;;;;;;;3.60;0.82;;;22.00;73.00;;;;;;4893320;29;20040;-90
2021/01/05 11:11:05;;;;;;;2.20;0.85;;;22.00;73.40;;;;;;4893072;29;20221;-88
2021/01/05 11:13:32;;;;;;;2.65;1.05;;;22.00;73.50;;;;;;4896630;29;20336;-90
2021/01/05 11:16:44;;;;;;;3.80;1.10;;;22.00;71.90;;;;;;4897022;29;20033;-92
2021/01/05 11:19:10;;;;;;;2.28;1.30;;;22.00;72.10;;;;;;4896093;29;20077;-90
2021/01/05 11:21:56;;;;;;;3.22;1.60;;;22.10;71.90;;;;;;4900808;29;20063;-91
2021/01/05 11:24:38;;;;;;;3.97;2.20;;;22.10;71.40;;;;;;4956364;28;20027;-91
2021/01/05 11:27:24;;;;;;;5.57;2.15;;;22.10;71.90;;;;;;4941317;29;20042;-91
2021/01/05 11:30:01;;;;;;;5.05;2.20;;;22.10;71.20;;;;;;4954457;29;20062;-95
2021/01/05 11:32:42;;;;;;;4.10;1.85;;;22.20;71.60;;;;;;4939896;29;20036;-91
2021/01/05 11:35:14;;;;;;;3.50;1.48;;;22.20;70.70;;;;;;4952808;29;20038;-92
2021/01/05 11:37:50;;;;;;;4.60;1.20;;;22.30;69.40;;;;;;4957923;29;20043;-93
2021/01/05 11:40:21;;;;;;;2.80;1.45;;;22.30;69.70;;;;;;4953874;29;20031;-93
2021/01/05 11:43:16;;;;;;;3.45;1.33;;;22.40;70.20;;;;;;4936807;29;20039;-92
2021/01/05 11:45:44;;;;;;;3.90;1.73;;;22.40;69.90;;;;;;4954194;29;20031;-91
2021/01/05 11:48:22;;;;;;;4.75;2.20;;;22.50;70.20;;;;;;4970022;29;20031;-92
2021/01/05 11:51:17;;;;;;;3.88;1.83;;;22.60;70.50;;;;;;4956537;29;20039;-91
2021/01/05 11:53:45;;;;;;;3.38;1.77;;;22.70;70.40;;;;;;4931224;29;20124;-94
2021/01/05 11:56:24;;;;;;;3.33;1.73;;;22.80;69.80;;;;;;4931658;29;20016;-92
2021/01/05 11:59:12;;;;;;;5.07;1.70;;;23.00;69.80;;;;;;4928582;29;20407;-94
2021/01/05 12:01:48;;;;;;;7.55;2.67;;;23.10;69.30;;;;;;4915511;29;20024;-93
2021/01/05 12:04:15;;;;;;;6.75;2.47;;;23.30;68.60;;;;;;4912538;29;20038;-93
2021/01/05 12:07:01;;;;;;;5.50;1.95;;;23.40;68.60;;;;;;4913489;29;20332;-92
2021/01/05 12:09:29;;;;;;;6.35;1.83;;;23.50;67.90;;;;;;4912291;29;20040;-94
2021/01/05 12:12:00;;;;;;;4.57;1.73;;;23.60;68.40;;;;;;4912516;29;20063;-92
2021/01/05 12:14:28;;;;;;;4.50;1.23;;;23.70;68.10;;;;;;4927706;29;20036;-92
2021/01/05 12:16:59;;;;;;;3.67;1.60;;;23.80;66.70;;;;;;4911954;29;20032;-94
2021/01/05 12:19:28;;;;;;;2.50;1.38;;;23.90;68.50;;;;;;4912603;29;20028;-93
2021/01/05 12:21:58;;;;;;;1.83;1.50;;;24.10;68.30;;;;;;4910989;29;20104;-94
2021/01/05 12:24:27;;;;;;;4.43;2.00;;;24.20;68.60;;;;;;4928001;29;20039;-92
2021/01/05 12:26:57;;;;;;;5.55;2.20;;;24.30;68.50;;;;;;4911189;29;20039;-91
2021/01/05 12:29:31;;;;;;;7.30;2.03;;;24.50;65.00;;;;;;4911730;29;20031;-92
2021/01/05 12:32:06;;;;;;;5.70;2.00;;;24.60;65.90;;;;;;4897370;29;20079;-92
2021/01/05 12:34:36;;;;;;;5.20;2.33;;;24.80;65.80;;;;;;4913465;29;20046;-90
2021/01/05 12:37:06;;;;;;;4.00;1.83;;;24.90;66.10;;;;;;4924883;29;20035;-93
2021/01/05 12:39:34;;;;;;;16.98;2.05;;;25.10;65.40;;;;;;4933775;29;20031;-92
2021/01/05 12:42:19;;;;;;;5.78;1.52;;;25.20;65.10;;;;;;4950244;29;20031;-93
2021/01/05 12:44:46;;;;;;;5.57;2.00;;;25.40;64.60;;;;;;4948863;29;20038;-94
2021/01/05 12:47:15;;;;;;;7.07;1.98;;;25.60;64.60;;;;;;4950432;29;20267;-92
2021/01/05 12:49:41;;;;;;;3.00;1.55;;;25.80;63.60;;;;;;4952282;29;20035;-94
2021/01/05 12:52:10;;;;;;;3.92;1.50;;;25.90;63.20;;;;;;4952996;28;20035;-92
2021/01/05 12:54:43;;;;;;;3.72;1.25;;;26.00;62.30;;;;;;4950716;29;20035;-92
2021/01/05 12:57:16;;;;;;;1.50;1.08;;;26.20;61.50;;;;;;4950630;29;20043;-93
2021/01/05 12:59:46;;;;;;;1.80;1.10;;;26.40;61.50;;;;;;4936179;29;20223;-96
2021/01/05 13:02:30;;;;;;;4.53;1.20;;;26.60;62.60;;;;;;4949705;29;20106;-93
2021/01/05 13:05:01;;;;;;;3.83;1.02;;;26.70;63.00;;;;;;4951385;29;20326;-93
2021/01/05 13:07:30;;;;;;;2.03;0.90;;;27.00;63.70;;;;;;4936867;29;20035;-94
2021/01/05 13:10:06;;;;;;;1.92;1.00;;;27.00;60.50;;;;;;4969119;29;20151;-93
2021/01/05 13:12:33;;;;;;;2.95;1.45;;;27.20;62.30;;;;;;4938193;29;20027;-94
2021/01/05 13:15:10;;;;;;;3.10;1.73;;;27.50;61.80;;;;;;4952729;29;20403;-90
2021/01/05 13:17:53;;;;;;;1.65;0.93;;;27.80;58.90;;;;;;4953299;29;20039;-94
2021/01/05 13:20:24;;;;;;;2.10;1.08;;;27.80;57.80;;;;;;4952692;29;20031;-94
2021/01/05 13:22:58;;;;;;;2.42;1.25;;;27.90;57.90;;;;;;4940538;29;20042;-95
2021/01/05 13:25:26;;;;;;;2.65;1.30;;;28.10;57.70;;;;;;4953074;29;20031;-96
2021/01/05 13:28:46;;;;;;;2.75;1.05;;;28.30;59.00;;;;;;4968200;29;20035;-96
2021/01/05 13:34:27;;;;;;;2.55;1.20;;;28.80;57.90;;;;;;5027791;23;20202;-96
2021/01/05 13:37:23;;;;;;;3.72;1.10;;;29.10;56.50;;;;;;4933217;29;20039;-95
2021/01/05 13:43:04;;;;;;;2.80;1.25;;;29.60;58.00;;;;;;4860969;29;20175;-95
2021/01/05 13:45:36;;;;;;;2.28;1.30;;;30.00;54.80;;;;;;4932173;29;20027;-96
2021/01/05 13:48:11;;;;;;;;;;;30.10;55.60;;;;;;4936073;29;20043;-94
2021/01/05 13:51:04;;;;;;;2.65;1.20;;;30.20;54.80;;;;;;4936492;29;19902;-92
2021/01/05 13:53:48;;;;;;;1.38;0.90;;;30.30;55.20;;;;;;4957494;29;20039;-91
2021/01/05 13:59:15;;;;;;;3.45;1.25;;;30.40;53.60;;;;;;5519793;23;20058;-92
2021/01/05 14:01:42;;;;;;;1.65;1.30;;;30.50;53.60;;;;;;4955653;29;20045;-91
2021/01/05 14:04:19;;;;;;;3.13;1.42;;;30.50;53.30;;;;;;4954742;29;20027;-92
2021/01/05 14:07:33;;;;;;;2.15;1.45;;;30.60;54.70;;;;;;4909726;29;20039;-96
2021/01/05 14:10:50;;;;;;;4.07;1.30;;;30.90;53.70;;;;;;4937364;29;20036;-91
2021/01/05 14:13:17;;;;;;;3.13;1.08;;;31.20;54.30;;;;;;4915028;29;20091;-92
2021/01/05 14:15:44;;;;;;;2.85;1.55;;;31.30;55.20;;;;;;4914935;29;20049;-92
2021/01/05 14:18:11;;;;;;;2.42;1.00;;;31.70;55.40;;;;;;4915001;29;20038;-94
2021/01/05 14:20:37;;;;;;;5.65;1.60;;;31.50;52.90;;;;;;4918154;29;20032;-94
2021/01/05 14:23:30;;;;;;;3.53;1.25;;;31.70;53.90;;;;;;4919154;29;20052;-93
2021/01/05 14:29:22;;;;;;;2.75;1.50;;;31.80;55.20;;;;;;4805886;30;20066;-91
2021/01/05 14:32:02;;;;;;;3.22;1.80;;;32.10;51.60;;;;;;4841641;29;20052;-94
2021/01/05 14:34:34;;;;;;;5.95;4.15;;;32.10;52.60;;;;;;4856702;29;20042;-90
2021/01/05 14:37:20;;;;;;;3.05;1.63;;;32.20;52.00;;;;;;4842009;29;20033;-90
2021/01/05 14:39:55;;;;;;;4.35;1.83;;;32.50;51.40;;;;;;4846095;29;20063;-94
2021/01/05 14:45:55;;;;;;;3.60;1.17;;;32.60;50.40;;;;;;4860053;29;20050;-91
2021/01/05 14:48:48;;;;;;;2.35;1.23;;;32.60;52.40;;;;;;4812619;29;20042;-91
2021/01/05 14:51:43;;;;;;;3.13;1.00;;;32.80;52.00;;;;;;4826359;29;20046;-92
2021/01/05 14:54:21;;;;;;;3.70;1.00;;;32.80;52.60;;;;;;4824113;29;20117;-95
2021/01/05 14:57:09;;;;;;;1.85;1.15;;;33.00;51.30;;;;;;4792114;29;20102;-90
2021/01/05 14:59:56;;;;;;;2.00;1.10;;;33.10;49.60;;;;;;4821156;29;20130;-92
2021/01/05 15:02:48;;;;;;;3.80;0.90;;;33.30;49.00;;;;;;4807999;29;20115;-91
2021/01/05 15:05:17;;;;;;;4.43;1.05;;;33.30;50.30;;;;;;4822620;29;20051;-93
2021/01/05 15:07:49;;;;;;;2.13;0.85;;;32.70;49.90;;;;;;4849889;29;20249;-96
2021/01/05 15:10:21;;;;;;;3.63;1.00;;;32.30;49.80;;;;;;4844619;29;20038;-93
2021/01/05 15:13:25;;;;;;;2.00;0.90;;;32.40;50.20;;;;;;4896198;29;20032;-93
2021/01/05 15:16:02;;;;;;;5.28;1.27;;;32.80;50.30;;;;;;4914471;29;20041;-92
2021/01/05 15:18:30;;;;;;;2.40;0.88;;;32.90;49.50;;;;;;4914742;29;20101;-92
2021/01/05 15:21:25;;;;;;;4.68;1.17;;;33.00;48.50;;;;;;5010408;23;20058;-95
2021/01/05 15:24:10;;;;;;;1.75;0.82;;;33.00;49.70;;;;;;4916638;29;20044;-92
2021/01/05 15:26:49;;;;;;;1.50;0.90;;;32.80;51.50;;;;;;4881826;29;20037;-93
2021/01/05 15:29:25;;;;;;;2.25;0.85;;;32.90;52.80;;;;;;4896512;29;20025;-93
2021/01/05 15:38:42;;;;;;;6.95;1.25;;;32.30;56.00;;;;;;4987356;23;20047;-91
2021/01/05 16:07:30;;;;;;;20.60;2.15;;;33.90;49.30;;;;;;4975334;29;20050;-91
2021/01/05 16:10:40;;;;;;;65.85;3.70;;;34.00;52.90;;;;;;4974881;29;20105;-93
2021/01/05 16:13:09;;;;;;;5.07;1.10;;;34.30;51.30;;;;;;4957944;29;20031;-92
2021/01/05 16:15:57;;;;;;;4.88;1.40;;;33.70;50.40;;;;;;4940806;29;20035;-94
2021/01/05 16:18:42;;;;;;;;;;;;;;;;;;;;;
2021/01/05 16:21:58;;;;;;;5.07;1.70;;;33.90;51.50;;;;;;4975192;29;20047;-94
2021/01/05 16:24:26;;;;;;;5.97;1.73;;;34.00;51.00;;;;;;4862731;29;20342;-95
2021/01/05 16:27:00;;;;;;;6.93;2.22;;;33.80;53.20;;;;;;4861300;29;20082;-96
2021/01/05 16:29:55;;;;;;;3.67;1.90;;;33.90;53.80;;;;;;4885799;29;20096;-96
2021/01/05 16:32:28;;;;;;;5.15;1.73;;;33.90;54.30;;;;;;4900813;29;20043;-94
2021/01/05 16:34:56;;;;;;;6.82;1.92;;;33.70;51.50;;;;;;4902746;29;20055;-96
2021/01/05 16:37:51;;;;;;;3.95;1.80;;;34.00;51.40;;;;;;4900297;29;20044;-94
2021/01/05 16:43:07;;;;;;;4.40;1.90;;;34.00;51.20;;;;;;5123351;23;20251;-92
2021/01/05 16:45:51;;;;;;;5.25;1.80;;;34.20;51.80;;;;;;4936265;29;20107;-91
2021/01/05 16:48:18;;;;;;;5.63;2.05;;;34.30;53.20;;;;;;4938481;29;20045;-93
2021/01/05 16:50:47;;;;;;;3.78;1.95;;;34.20;54.10;;;;;;4934705;29;20204;-92
2021/01/05 16:53:48;;;;;;;6.13;2.30;;;33.60;50.70;;;;;;4934692;29;20039;-94
2021/01/05 16:56:33;;;;;;;41.75;6.07;;;33.90;52.80;;;;;;4950977;29;20046;-92
2021/01/05 16:59:23;;;;;;;7.28;2.20;;;34.40;52.60;;;;;;4917156;29;20232;-91
2021/01/05 17:02:22;;;;;;;14.57;3.53;;;34.90;50.90;;;;;;4951000;29;20040;-95
2021/01/05 17:05:05;;;;;;;5.60;2.72;;;34.90;52.40;;;;;;4893587;29;20028;-94
2021/01/05 17:07:51;;;;;;;5.00;2.63;;;34.80;51.20;;;;;;4955390;29;20032;-92
2021/01/05 17:14:17;;;;;;;7.90;2.53;;;34.70;52.40;;;;;;4901057;29;20073;-92
2021/01/05 17:57:18;;;;;;;3.90;1.50;;;33.70;53.30;;;;;;4971536;29;20110;-93
2021/01/05 17:59:56;;;;;;;6.68;1.90;;;33.60;54.00;;;;;;4976167;29;20051;-92